Time;durP1;ratioP1;P1;durP2;ratioP2;P2;SDS_P1;SDS_P2;PMS_P1;PMS_P2;Temp;Humidity;BMP_temperature;BMP_pressure;BME280_temperature;BME280_humidity;BME280_pressure;Samples;Min_cycle;Max_cycle;Signal;HPM_P1;HPM_P2
2021/09/17 00:02:22;;;;;;;12.43;3.60;;;;;;;;;;5073001;28;20040;-59
2021/09/17 00:04:50;;;;;;;4.47;2.47;;;;;;;;;;5072808;28;20029;-59
2021/09/17 00:07:17;;;;;;;10.60;3.10;;;;;;;;;;5072815;28;20063;-60
2021/09/17 00:09:44;;;;;;;4.80;2.93;;;;;;;;;;5067513;28;20058;-60
2021/09/17 00:12:11;;;;;;;4.47;2.70;;;;;;;;;;5067442;28;20029;-59
2021/09/17 00:14:37;;;;;;;8.10;2.97;;;;;;;;;;5067640;28;20021;-60
2021/09/17 00:17:04;;;;;;;6.57;3.07;;;;;;;;;;5067340;28;20102;-59
2021/09/17 00:19:31;;;;;;;5.50;3.00;;;;;;;;;;5071833;28;20107;-60
2021/09/17 00:21:58;;;;;;;6.13;3.37;;;;;;;;;;5072498;28;20523;-60
2021/09/17 00:24:25;;;;;;;9.73;2.50;;;;;;;;;;5072453;28;20353;-60
2021/09/17 00:26:51;;;;;;;20.80;3.20;;;;;;;;;;5072633;28;20483;-60
2021/09/17 00:29:18;;;;;;;6.57;2.47;;;;;;;;;;5072637;28;20169;-60
2021/09/17 00:31:45;;;;;;;9.73;2.53;;;;;;;;;;5068032;28;20033;-59
2021/09/17 00:34:12;;;;;;;5.70;2.67;;;;;;;;;;5067071;28;20490;-60
2021/09/17 00:36:39;;;;;;;5.50;3.23;;;;;;;;;;5067185;28;20471;-59
2021/09/17 00:39:05;;;;;;;7.93;3.30;;;;;;;;;;5066995;28;20078;-60
2021/09/17 00:41:32;;;;;;;8.20;3.10;;;;;;;;;;5049092;28;20044;-60
2021/09/17 00:43:59;;;;;;;13.13;3.23;;;;;;;;;;5072475;28;20024;-60
2021/09/17 00:46:26;;;;;;;6.80;3.10;;;;;;;;;;5072458;28;20024;-59
2021/09/17 00:48:52;;;;;;;5.03;3.00;;;;;;;;;;5072371;28;20047;-60
2021/09/17 00:51:19;;;;;;;9.50;3.10;;;;;;;;;;5072310;28;20107;-60
2021/09/17 00:53:46;;;;;;;17.97;4.17;;;;;;;;;;5068760;28;20032;-60
2021/09/17 00:56:13;;;;;;;6.93;3.20;;;;;;;;;;5066776;28;20103;-60
2021/09/17 00:58:39;;;;;;;5.87;2.80;;;;;;;;;;5066878;28;20085;-59
2021/09/17 01:01:06;;;;;;;14.33;3.17;;;;;;;;;;5066583;28;20036;-60
2021/09/17 01:03:33;;;;;;;7.10;4.47;;;;;;;;;;5069639;28;20471;-60
2021/09/17 01:06:02;;;;;;;6.77;3.23;;;;;;;;;;5072136;28;20107;-60
2021/09/17 01:08:31;;;;;;;7.40;3.47;;;;;;;;;;5068068;28;20120;-61
2021/09/17 01:10:59;;;;;;;9.87;3.43;;;;;;;;;;5051983;28;20033;-60
2021/09/17 01:13:26;;;;;;;7.57;3.07;;;;;;;;;;5051772;28;20104;-60
2021/09/17 01:15:52;;;;;;;5.97;3.20;;;;;;;;;;5049253;28;20021;-60
2021/09/17 01:18:19;;;;;;;9.77;2.90;;;;;;;;;;5046321;28;20063;-60
2021/09/17 01:20:47;;;;;;;26.20;3.83;;;;;;;;;;5046501;28;20021;-60
2021/09/17 01:23:13;;;;;;;16.20;3.87;;;;;;;;;;5046717;28;20032;-60
2021/09/17 01:25:40;;;;;;;5.93;3.07;;;;;;;;;;5048699;28;20032;-59
2021/09/17 01:28:07;;;;;;;3.90;2.63;;;;;;;;;;5052044;28;20052;-60
2021/09/17 01:30:34;;;;;;;8.80;2.83;;;;;;;;;;5051986;28;20031;-60
2021/09/17 01:33:01;;;;;;;13.03;2.80;;;;;;;;;;5051870;28;20033;-60
2021/09/17 01:35:27;;;;;;;4.53;2.63;;;;;;;;;;5051790;28;20468;-59
2021/09/17 01:37:54;;;;;;;5.07;2.43;;;;;;;;;;5049757;28;20638;-60
2021/09/17 01:40:21;;;;;;;5.30;3.00;;;;;;;;;;5046402;28;20096;-60
2021/09/17 01:42:48;;;;;;;5.90;2.87;;;;;;;;;;5046488;28;20078;-60
2021/09/17 01:45:15;;;;;;;7.77;3.30;;;;;;;;;;5048576;28;20051;-60
2021/09/17 01:47:42;;;;;;;11.50;2.70;;;;;;;;;;5051307;28;20021;-60
2021/09/17 01:50:09;;;;;;;5.53;2.80;;;;;;;;;;5055520;28;20100;-60
2021/09/17 01:52:37;;;;;;;5.63;2.60;;;;;;;;;;5055599;28;20033;-59
2021/09/17 01:55:04;;;;;;;8.63;2.90;;;;;;;;;;5058642;28;20013;-60
2021/09/17 01:57:30;;;;;;;6.20;2.53;;;;;;;;;;5075191;28;20491;-60
2021/09/17 01:59:57;;;;;;;4.73;2.83;;;;;;;;;;5074290;28;20437;-60
2021/09/17 02:02:24;;;;;;;5.67;3.30;;;;;;;;;;5070356;28;20039;-60
2021/09/17 02:04:51;;;;;;;4.13;2.53;;;;;;;;;;5070243;28;20416;-59
2021/09/17 02:07:18;;;;;;;8.63;3.20;;;;;;;;;;5069876;28;20419;-60
2021/09/17 02:09:45;;;;;;;16.13;3.97;;;;;;;;;;5055923;28;20502;-60
2021/09/17 02:12:11;;;;;;;18.33;3.33;;;;;;;;;;5067204;28;20493;-60
2021/09/17 02:14:39;;;;;;;32.87;5.00;;;;;;;;;;5075375;28;20371;-60
2021/09/17 02:17:06;;;;;;;21.10;3.93;;;;;;;;;;5075137;28;20070;-60
2021/09/17 02:19:33;;;;;;;8.23;2.80;;;;;;;;;;5075238;28;20035;-60
2021/09/17 02:22:00;;;;;;;4.43;2.80;;;;;;;;;;5074200;28;20017;-60
2021/09/17 02:24:27;;;;;;;7.40;3.30;;;;;;;;;;5070042;28;20029;-62
2021/09/17 02:26:54;;;;;;;10.10;3.17;;;;;;;;;;5070293;28;20024;-62
2021/09/17 02:29:20;;;;;;;16.30;3.90;;;;;;;;;;5070091;28;20024;-62
2021/09/17 02:31:47;;;;;;;4.73;2.73;;;;;;;;;;5069200;28;20032;-59
2021/09/17 02:34:14;;;;;;;7.80;3.03;;;;;;;;;;5074534;28;20375;-60
2021/09/17 02:36:41;;;;;;;5.13;3.30;;;;;;;;;;5074918;28;20494;-59
2021/09/17 02:39:09;;;;;;;6.93;3.27;;;;;;;;;;5074636;28;20429;-60
2021/09/17 02:41:35;;;;;;;16.60;3.83;;;;;;;;;;5074362;28;20465;-59
2021/09/17 02:44:02;;;;;;;9.63;3.30;;;;;;;;;;5074770;28;20020;-59
2021/09/17 02:46:29;;;;;;;13.03;3.37;;;;;;;;;;5070084;28;20028;-59
2021/09/17 02:48:56;;;;;;;8.97;2.77;;;;;;;;;;5069501;28;20027;-60
2021/09/17 02:51:22;;;;;;;4.60;2.50;;;;;;;;;;5069196;28;20111;-60
2021/09/17 02:53:49;;;;;;;9.30;3.07;;;;;;;;;;5069722;28;20048;-59
2021/09/17 02:56:16;;;;;;;9.50;3.70;;;;;;;;;;5072835;28;20035;-60
2021/09/17 02:58:43;;;;;;;17.90;3.97;;;;;;;;;;5074529;28;20032;-59
2021/09/17 03:01:09;;;;;;;11.67;3.33;;;;;;;;;;5074075;28;20029;-59
2021/09/17 03:03:36;;;;;;;28.77;5.33;;;;;;;;;;5073977;28;20059;-59
2021/09/17 03:06:03;;;;;;;8.53;3.20;;;;;;;;;;5073898;28;20387;-59
2021/09/17 03:08:30;;;;;;;10.83;3.17;;;;;;;;;;5069630;28;20387;-59
2021/09/17 03:10:57;;;;;;;5.40;3.30;;;;;;;;;;5068680;28;20377;-60
2021/09/17 03:13:28;;;;;;;5.10;3.00;;;;;;;;;;5068863;28;20040;-60
2021/09/17 03:15:55;;;;;;;23.43;4.27;;;;;;;;;;5068984;28;20032;-60
2021/09/17 03:18:22;;;;;;;26.07;4.17;;;;;;;;;;5072318;28;20032;-59
2021/09/17 03:20:50;;;;;;;19.80;3.60;;;;;;;;;;5073857;28;20024;-59
2021/09/17 03:23:17;;;;;;;8.60;3.03;;;;;;;;;;5073658;28;20029;-59
2021/09/17 03:25:44;;;;;;;7.60;3.77;;;;;;;;;;5074002;28;20471;-60
2021/09/17 03:28:11;;;;;;;6.67;3.20;;;;;;;;;;5074124;28;20641;-59
2021/09/17 03:30:38;;;;;;;9.03;3.40;;;;;;;;;;5070015;28;20487;-59
2021/09/17 03:33:05;;;;;;;15.03;5.10;;;;;;;;;;5068799;28;20029;-59
2021/09/17 03:35:32;;;;;;;14.73;3.50;;;;;;;;;;5068532;28;20514;-59
2021/09/17 03:37:58;;;;;;;9.57;3.27;;;;;;;;;;5068770;28;20028;-59
2021/09/17 03:40:25;;;;;;;10.00;3.17;;;;;;;;;;5071188;28;20056;-60
2021/09/17 03:42:52;;;;;;;8.47;3.50;;;;;;;;;;5073082;28;20081;-60
2021/09/17 03:45:19;;;;;;;6.20;2.90;;;;;;;;;;5073378;28;20029;-59
2021/09/17 03:47:45;;;;;;;9.23;3.37;;;;;;;;;;5073289;28;20098;-59
2021/09/17 03:50:12;;;;;;;6.97;3.20;;;;;;;;;;5073515;28;20032;-60
2021/09/17 03:52:39;;;;;;;6.90;3.37;;;;;;;;;;5070127;28;20383;-60
2021/09/17 03:55:06;;;;;;;4.97;2.93;;;;;;;;;;5068477;28;20020;-59
2021/09/17 03:57:33;;;;;;;12.00;3.00;;;;;;;;;;5068388;28;20105;-59
2021/09/17 04:00:00;;;;;;;7.63;2.77;;;;;;;;;;5067828;28;20060;-60
2021/09/17 04:02:26;;;;;;;7.67;2.90;;;;;;;;;;5069730;28;20103;-59
2021/09/17 04:04:53;;;;;;;9.07;2.80;;;;;;;;;;5073157;28;20036;-59
2021/09/17 04:07:20;;;;;;;10.43;2.93;;;;;;;;;;5072511;28;20037;-60
2021/09/17 04:09:47;;;;;;;10.50;3.30;;;;;;;;;;5072956;28;20025;-59
2021/09/17 04:12:13;;;;;;;10.70;3.30;;;;;;;;;;5072643;28;20090;-59
2021/09/17 04:14:40;;;;;;;9.13;2.97;;;;;;;;;;5070963;28;20031;-59
2021/09/17 04:17:07;;;;;;;4.27;2.60;;;;;;;;;;5067455;28;20028;-59
2021/09/17 04:19:36;;;;;;;8.10;3.87;;;;;;;;;;5067928;28;20036;-59
2021/09/17 04:22:04;;;;;;;6.33;2.73;;;;;;;;;;5067523;28;20111;-60
2021/09/17 04:24:31;;;;;;;3.83;2.40;;;;;;;;;;5052004;28;20448;-59
2021/09/17 04:26:58;;;;;;;4.40;2.40;;;;;;;;;;5068489;28;20425;-59
2021/09/17 04:29:28;;;;;;;4.23;2.83;;;;;;;;;;5063668;28;20024;-59
2021/09/17 04:31:54;;;;;;;8.23;2.87;;;;;;;;;;5061082;28;20017;-59
2021/09/17 04:34:21;;;;;;;8.17;2.87;;;;;;;;;;5061787;28;20036;-59
2021/09/17 04:36:48;;;;;;;7.20;2.60;;;;;;;;;;5068688;28;20032;-59
2021/09/17 04:39:18;;;;;;;4.03;2.50;;;;;;;;;;5062996;28;20071;-60
2021/09/17 04:41:45;;;;;;;4.60;2.33;;;;;;;;;;5061042;28;20024;-59
2021/09/17 04:44:12;;;;;;;5.97;2.80;;;;;;;;;;5067532;28;20028;-60
2021/09/17 04:46:38;;;;;;;5.60;2.43;;;;;;;;;;5068420;28;20031;-59
2021/09/17 04:49:05;;;;;;;5.07;2.43;;;;;;;;;;5072490;28;20103;-59
2021/09/17 04:51:32;;;;;;;7.23;3.13;;;;;;;;;;5071825;28;20510;-59
2021/09/17 04:53:59;;;;;;;6.97;2.40;;;;;;;;;;5071900;28;20470;-59
2021/09/17 04:56:25;;;;;;;6.63;2.50;;;;;;;;;;5072232;28;20483;-60
2021/09/17 04:58:52;;;;;;;13.60;2.83;;;;;;;;;;5071672;28;20387;-59
2021/09/17 05:01:20;;;;;;;6.97;2.60;;;;;;;;;;5067064;28;20506;-59
2021/09/17 05:03:47;;;;;;;7.13;2.43;;;;;;;;;;5067473;28;20070;-59
2021/09/17 05:06:14;;;;;;;7.13;2.50;;;;;;;;;;5067363;28;20020;-59
2021/09/17 05:08:41;;;;;;;5.73;2.37;;;;;;;;;;5066643;28;20454;-60
2021/09/17 05:11:07;;;;;;;4.83;2.60;;;;;;;;;;5072395;28;20039;-60
2021/09/17 05:13:34;;;;;;;6.87;2.40;;;;;;;;;;5071333;28;20045;-60
2021/09/17 05:16:01;;;;;;;5.20;2.27;;;;;;;;;;5072322;28;20031;-59
2021/09/17 05:18:28;;;;;;;6.53;2.67;;;;;;;;;;5072168;28;20031;-59
2021/09/17 05:20:55;;;;;;;5.93;2.23;;;;;;;;;;5075507;28;20103;-59
2021/09/17 05:23:21;;;;;;;5.67;2.80;;;;;;;;;;5070951;28;20055;-60
2021/09/17 05:25:48;;;;;;;6.80;2.70;;;;;;;;;;5070893;28;20020;-60
2021/09/17 05:28:15;;;;;;;5.23;2.20;;;;;;;;;;5071182;28;20024;-59
2021/09/17 05:30:42;;;;;;;11.07;3.20;;;;;;;;;;5070958;28;20036;-59
2021/09/17 05:33:08;;;;;;;8.80;3.00;;;;;;;;;;5075087;28;20120;-59
2021/09/17 05:35:35;;;;;;;8.30;2.97;;;;;;;;;;5075934;28;20103;-60
2021/09/17 05:38:02;;;;;;;6.97;2.27;;;;;;;;;;5076070;28;20371;-59
2021/09/17 05:40:29;;;;;;;18.97;3.20;;;;;;;;;;5075804;28;20020;-59
2021/09/17 05:42:55;;;;;;;6.70;2.30;;;;;;;;;;5075403;28;20033;-59
2021/09/17 05:45:22;;;;;;;4.37;2.40;;;;;;;;;;5071178;28;20100;-60
2021/09/17 05:47:49;;;;;;;5.90;2.47;;;;;;;;;;5070642;28;20025;-59
2021/09/17 05:50:16;;;;;;;11.83;2.40;;;;;;;;;;5070676;28;20025;-59
2021/09/17 05:52:43;;;;;;;4.63;2.33;;;;;;;;;;5070188;28;20040;-60
2021/09/17 05:55:10;;;;;;;6.90;2.50;;;;;;;;;;5074248;28;20154;-59
2021/09/17 05:57:37;;;;;;;3.53;2.13;;;;;;;;;;5075680;28;20035;-59
2021/09/17 06:00:05;;;;;;;4.63;2.60;;;;;;;;;;5075678;28;20035;-59
2021/09/17 06:02:31;;;;;;;4.10;2.53;;;;;;;;;;5075053;28;20024;-60
2021/09/17 06:04:58;;;;;;;4.77;2.83;;;;;;;;;;5074841;28;20107;-59
2021/09/17 06:07:25;;;;;;;7.07;3.43;;;;;;;;;;5071471;28;20037;-60
2021/09/17 06:09:52;;;;;;;5.87;3.63;;;;;;;;;;5070271;28;20037;-59
2021/09/17 06:12:19;;;;;;;6.90;3.17;;;;;;;;;;5069865;28;20074;-59
2021/09/17 06:14:45;;;;;;;5.60;3.43;;;;;;;;;;5070503;28;20218;-60
2021/09/17 06:17:12;;;;;;;6.10;3.10;;;;;;;;;;5073305;28;20031;-60
2021/09/17 06:19:39;;;;;;;6.50;3.83;;;;;;;;;;5074787;28;20032;-60
2021/09/17 06:22:05;;;;;;;6.00;3.80;;;;;;;;;;5074638;28;20104;-59
2021/09/17 06:24:32;;;;;;;5.90;3.13;;;;;;;;;;5075118;28;20024;-59
2021/09/17 06:26:59;;;;;;;5.87;3.50;;;;;;;;;;5075085;28;21335;-59
2021/09/17 06:29:26;;;;;;;5.53;3.27;;;;;;;;;;5071817;28;20435;-60
2021/09/17 06:31:52;;;;;;;8.80;3.23;;;;;;;;;;5069328;28;20047;-59
2021/09/17 06:34:19;;;;;;;10.83;3.40;;;;;;;;;;5070037;28;20316;-59
2021/09/17 06:36:46;;;;;;;5.07;2.90;;;;;;;;;;5069492;28;20421;-59
2021/09/17 06:39:13;;;;;;;5.93;3.07;;;;;;;;;;5072157;28;20036;-59
2021/09/17 06:41:40;;;;;;;15.93;2.70;;;;;;;;;;5074540;28;20024;-59
2021/09/17 06:44:07;;;;;;;3.97;2.57;;;;;;;;;;5074539;28;20036;-59
2021/09/17 06:46:33;;;;;;;9.47;2.90;;;;;;;;;;5074843;28;20070;-59
2021/09/17 06:49:00;;;;;;;5.13;2.63;;;;;;;;;;5074635;28;20107;-60
2021/09/17 06:51:27;;;;;;;5.13;2.37;;;;;;;;;;5071706;28;20021;-59
2021/09/17 06:53:53;;;;;;;5.57;2.87;;;;;;;;;;5069130;28;20032;-60
2021/09/17 06:56:20;;;;;;;7.17;2.73;;;;;;;;;;5069507;28;20086;-59
2021/09/17 06:58:47;;;;;;;5.87;2.43;;;;;;;;;;5069537;28;20029;-59
2021/09/17 07:01:14;;;;;;;5.27;2.57;;;;;;;;;;5070874;28;20029;-59
2021/09/17 07:03:40;;;;;;;5.10;2.30;;;;;;;;;;5074384;28;20103;-60
2021/09/17 07:06:07;;;;;;;6.10;2.40;;;;;;;;;;5074299;28;20031;-59
2021/09/17 07:08:34;;;;;;;6.60;2.83;;;;;;;;;;5074081;28;20486;-59
2021/09/17 07:11:01;;;;;;;5.60;2.90;;;;;;;;;;5074214;28;20093;-59
2021/09/17 07:13:27;;;;;;;4.07;2.37;;;;;;;;;;5071561;28;20036;-59
2021/09/17 07:15:54;;;;;;;5.20;2.30;;;;;;;;;;5069087;28;20032;-60
2021/09/17 07:18:21;;;;;;;3.97;2.40;;;;;;;;;;5069061;28;20495;-60
2021/09/17 07:20:50;;;;;;;5.60;2.63;;;;;;;;;;5068942;28;20028;-59
2021/09/17 07:23:17;;;;;;;4.80;2.57;;;;;;;;;;5069879;28;20383;-59
2021/09/17 07:25:43;;;;;;;5.67;2.80;;;;;;;;;;5073840;28;20074;-59
2021/09/17 07:28:10;;;;;;;5.27;2.80;;;;;;;;;;5074103;28;20033;-59
2021/09/17 07:30:37;;;;;;;4.10;2.57;;;;;;;;;;5073504;28;20032;-59
2021/09/17 07:33:04;;;;;;;5.77;2.40;;;;;;;;;;5073379;28;20032;-59
2021/09/17 07:35:31;;;;;;;4.43;2.80;;;;;;;;;;5072584;28;20086;-59
2021/09/17 07:37:58;;;;;;;4.70;2.60;;;;;;;;;;5068689;28;20090;-59
2021/09/17 07:40:26;;;;;;;10.23;3.90;;;;;;;;;;5068635;28;20025;-59
2021/09/17 07:42:53;;;;;;;6.33;2.80;;;;;;;;;;5067493;28;20123;-59
2021/09/17 07:45:21;;;;;;;5.73;3.03;;;;;;;;;;5068789;28;20036;-59
2021/09/17 07:47:48;;;;;;;5.30;2.23;;;;;;;;;;5073034;28;20052;-59
2021/09/17 07:50:15;;;;;;;5.17;2.63;;;;;;;;;;5073484;28;20462;-59
2021/09/17 07:52:42;;;;;;;5.23;2.57;;;;;;;;;;5072960;28;20037;-59
2021/09/17 07:55:09;;;;;;;3.70;2.43;;;;;;;;;;5073389;28;20031;-59
2021/09/17 07:57:36;;;;;;;6.93;2.60;;;;;;;;;;5072617;28;20545;-60
2021/09/17 08:00:04;;;;;;;4.70;2.53;;;;;;;;;;5068047;28;20106;-59
2021/09/17 08:02:31;;;;;;;4.27;2.73;;;;;;;;;;5067738;28;20052;-59
2021/09/17 08:04:58;;;;;;;4.57;2.43;;;;;;;;;;5068301;28;20044;-59
2021/09/17 08:07:25;;;;;;;5.93;2.40;;;;;;;;;;5068055;28;20413;-59
2021/09/17 08:09:51;;;;;;;6.07;2.37;;;;;;;;;;5072711;28;20028;-58
2021/09/17 08:12:18;;;;;;;5.67;2.80;;;;;;;;;;5072706;28;20044;-58
2021/09/17 08:14:45;;;;;;;5.53;2.50;;;;;;;;;;5072967;28;20085;-59
2021/09/17 08:17:12;;;;;;;5.33;2.43;;;;;;;;;;5072801;28;20066;-59
2021/09/17 08:19:39;;;;;;;3.47;2.17;;;;;;;;;;5072687;28;20025;-59
2021/09/17 08:22:05;;;;;;;3.47;2.27;;;;;;;;;;5066912;28;20024;-59
2021/09/17 08:24:32;;;;;;;5.13;2.53;;;;;;;;;;5067713;28;20041;-59
2021/09/17 08:27:00;;;;;;;5.57;2.50;;;;;;;;;;5067942;28;20036;-59
2021/09/17 08:29:28;;;;;;;3.83;2.23;;;;;;;;;;5067855;28;20029;-59
2021/09/17 08:31:55;;;;;;;4.73;2.60;;;;;;;;;;5071919;28;20381;-58
2021/09/17 08:34:23;;;;;;;4.80;2.40;;;;;;;;;;5072630;28;20114;-59
2021/09/17 08:36:49;;;;;;;6.13;2.70;;;;;;;;;;5072745;28;20029;-59
2021/09/17 08:39:17;;;;;;;3.23;2.20;;;;;;;;;;5072032;28;20021;-59
2021/09/17 08:41:45;;;;;;;4.60;2.50;;;;;;;;;;5072169;28;20119;-59
2021/09/17 08:44:11;;;;;;;4.20;2.27;;;;;;;;;;5067879;28;20037;-59
2021/09/17 08:46:42;;;;;;;5.37;2.30;;;;;;;;;;5067507;28;20534;-59
2021/09/17 08:49:12;;;;;;;5.77;2.40;;;;;;;;;;5067389;28;20024;-59
2021/09/17 08:51:39;;;;;;;7.13;2.40;;;;;;;;;;5066961;28;20029;-59
2021/09/17 08:54:06;;;;;;;4.40;2.70;;;;;;;;;;5071043;28;20017;-59
2021/09/17 08:56:33;;;;;;;4.93;2.67;;;;;;;;;;5072327;28;20425;-59
2021/09/17 08:59:00;;;;;;;4.37;2.70;;;;;;;;;;5072236;28;20031;-59
2021/09/17 09:01:29;;;;;;;3.97;2.67;;;;;;;;;;5072547;28;20024;-59
2021/09/17 09:03:59;;;;;;;9.60;3.20;;;;;;;;;;5072490;28;20036;-59
2021/09/17 09:06:26;;;;;;;6.07;2.63;;;;;;;;;;5067588;28;20103;-59
2021/09/17 09:08:53;;;;;;;3.03;2.10;;;;;;;;;;5066942;28;20483;-59
2021/09/17 09:11:21;;;;;;;3.60;2.20;;;;;;;;;;5066841;28;20036;-59
2021/09/17 09:14:06;;;;;;;3.93;2.30;;;;;;;;;;5066727;28;20048;-59
2021/09/17 09:16:32;;;;;;;;;;;;;;;;;;5071736;28;20039;-59
2021/09/17 09:19:15;;;;;;;7.33;2.73;;;;;;;;;;5072376;28;19905;-59
2021/09/17 09:21:42;;;;;;;7.03;2.83;;;;;;;;;;5071762;28;20108;-58
2021/09/17 09:24:14;;;;;;;4.50;2.40;;;;;;;;;;5072204;28;20511;-58
2021/09/17 09:26:41;;;;;;;5.57;2.23;;;;;;;;;;5071868;28;20017;-59
2021/09/17 09:29:27;;;;;;;9.07;4.33;;;;;;;;;;5067202;28;20017;-59
2021/09/17 09:31:54;;;;;;;8.60;3.20;;;;;;;;;;5046246;28;20037;-59
2021/09/17 09:34:24;;;;;;;11.70;2.60;;;;;;;;;;5047159;28;20427;-59
2021/09/17 09:37:03;;;;;;;4.97;2.50;;;;;;;;;;5047265;28;20056;-59
2021/09/17 09:39:48;;;;;;;6.20;2.77;;;;;;;;;;5051832;28;20075;-59
2021/09/17 09:42:18;;;;;;;4.50;2.33;;;;;;;;;;5051540;28;20021;-58
2021/09/17 09:45:04;;;;;;;4.13;2.50;;;;;;;;;;5054644;28;20888;-58
2021/09/17 09:47:36;;;;;;;3.40;2.27;;;;;;;;;;5071845;28;20025;-59
2021/09/17 09:50:04;;;;;;;4.20;2.00;;;;;;;;;;5069520;28;20094;-59
2021/09/17 09:52:31;;;;;;;4.77;2.27;;;;;;;;;;5066339;28;20072;-59
2021/09/17 09:54:58;;;;;;;3.57;2.23;;;;;;;;;;5066525;28;20426;-59
2021/09/17 09:57:26;;;;;;;4.10;2.33;;;;;;;;;;5066843;28;20059;-59
2021/09/17 09:59:53;;;;;;;7.23;2.40;;;;;;;;;;5068372;28;20111;-59
2021/09/17 10:02:23;;;;;;;4.20;2.30;;;;;;;;;;5071602;28;20055;-59
2021/09/17 10:04:52;;;;;;;4.43;2.03;;;;;;;;;;5071611;28;20154;-59
2021/09/17 10:07:19;;;;;;;5.87;2.63;;;;;;;;;;5074663;28;20053;-59
2021/09/17 10:09:47;;;;;;;5.70;2.20;;;;;;;;;;5074880;28;20027;-59
2021/09/17 10:12:14;;;;;;;3.47;2.30;;;;;;;;;;5073269;28;20554;-59
2021/09/17 10:14:45;;;;;;;3.73;2.30;;;;;;;;;;5070578;28;20360;-59
2021/09/17 10:17:14;;;;;;;6.73;2.70;;;;;;;;;;5070309;28;21004;-59
2021/09/17 10:19:43;;;;;;;3.87;2.77;;;;;;;;;;5069847;28;20020;-59
2021/09/17 10:22:10;;;;;;;3.53;2.13;;;;;;;;;;5071443;28;20510;-58
2021/09/17 10:24:39;;;;;;;4.07;2.40;;;;;;;;;;5075031;28;20052;-59
2021/09/17 10:27:10;;;;;;;5.70;2.70;;;;;;;;;;5075167;28;20556;-59
2021/09/17 10:29:40;;;;;;;5.00;2.30;;;;;;;;;;5075042;28;20016;-59
2021/09/17 10:32:08;;;;;;;3.30;2.27;;;;;;;;;;5074673;28;20048;-59
2021/09/17 10:34:43;;;;;;;5.87;1.93;;;;;;;;;;5073014;28;20029;-59
2021/09/17 10:37:10;;;;;;;17.67;3.27;;;;;;;;;;5070041;28;20028;-59
2021/09/17 10:39:38;;;;;;;7.43;2.60;;;;;;;;;;5069784;28;20036;-59
2021/09/17 10:42:07;;;;;;;5.27;2.33;;;;;;;;;;5070094;28;20071;-59
2021/09/17 10:44:54;;;;;;;5.47;2.43;;;;;;;;;;5071079;28;20035;-59
2021/09/17 10:47:39;;;;;;;3.43;2.13;;;;;;;;;;5074471;28;20036;-58
2021/09/17 10:50:05;;;;;;;7.72;2.50;;;;;;;;;;5074742;28;20029;-59
2021/09/17 10:52:50;;;;;;;3.10;2.20;;;;;;;;;;5074541;28;20028;-59
2021/09/17 10:55:35;;;;;;;5.13;2.25;;;;;;;;;;5074352;28;20074;-59
2021/09/17 10:58:20;;;;;;;5.55;2.35;;;;;;;;;;5070033;28;20024;-59
2021/09/17 11:01:14;;;;;;;4.57;2.70;;;;;;;;;;5069778;28;20032;-59
2021/09/17 11:03:40;;;;;;;5.33;2.33;;;;;;;;;;5065814;28;20534;-59
2021/09/17 11:06:31;;;;;;;7.63;2.63;;;;;;;;;;5069171;28;20098;-59
2021/09/17 11:09:02;;;;;;;9.70;2.33;;;;;;;;;;5066341;28;20092;-59
2021/09/17 11:11:29;;;;;;;5.10;1.97;;;;;;;;;;5054400;28;20363;-59
2021/09/17 11:14:00;;;;;;;12.10;2.63;;;;;;;;;;5069442;28;20519;-59
2021/09/17 11:16:27;;;;;;;13.73;2.67;;;;;;;;;;5074022;28;20036;-59
2021/09/17 11:19:01;;;;;;;5.10;2.20;;;;;;;;;;5072609;28;20021;-59
2021/09/17 11:21:30;;;;;;;3.65;2.45;;;;;;;;;;5069039;28;20032;-60
2021/09/17 11:23:57;;;;;;;7.10;2.50;;;;;;;;;;5069058;28;20115;-59
2021/09/17 11:26:27;;;;;;;6.53;3.23;;;;;;;;;;5068693;28;20029;-60
2021/09/17 11:29:06;;;;;;;7.33;2.53;;;;;;;;;;5069859;28;20035;-58
2021/09/17 11:31:35;;;;;;;4.17;2.40;;;;;;;;;;5073719;28;20024;-59
2021/09/17 11:34:04;;;;;;;3.87;2.40;;;;;;;;;;5073689;28;20071;-59
2021/09/17 11:36:36;;;;;;;10.03;2.57;;;;;;;;;;5073396;28;20401;-59
2021/09/17 11:39:12;;;;;;;4.90;2.63;;;;;;;;;;5053714;28;20029;-59
2021/09/17 11:41:39;;;;;;;10.37;2.80;;;;;;;;;;5051575;28;20116;-59
2021/09/17 11:44:06;;;;;;;4.50;2.50;;;;;;;;;;5054638;28;20017;-58
2021/09/17 11:46:33;;;;;;;5.07;2.80;;;;;;;;;;5068586;28;20100;-59
2021/09/17 11:49:00;;;;;;;5.47;2.77;;;;;;;;;;5068358;28;20036;-59
2021/09/17 11:51:27;;;;;;;4.23;2.40;;;;;;;;;;5069522;28;20406;-59
2021/09/17 11:53:53;;;;;;;3.80;2.50;;;;;;;;;;5073019;28;20107;-59
2021/09/17 11:56:20;;;;;;;3.77;2.40;;;;;;;;;;5072888;28;20028;-61
2021/09/17 11:58:47;;;;;;;4.87;3.00;;;;;;;;;;5073067;28;20027;-61
2021/09/17 12:01:18;;;;;;;3.87;2.03;;;;;;;;;;5073307;28;20021;-61
2021/09/17 12:03:45;;;;;;;7.97;2.40;;;;;;;;;;5071523;28;20097;-61
2021/09/17 12:06:12;;;;;;;6.13;2.37;;;;;;;;;;5068152;28;20056;-61
2021/09/17 12:08:39;;;;;;;5.50;2.67;;;;;;;;;;5067405;28;20013;-61
2021/09/17 12:11:05;;;;;;;15.33;4.03;;;;;;;;;;5068223;28;20370;-62
2021/09/17 12:13:32;;;;;;;4.67;2.53;;;;;;;;;;5068792;28;20036;-61
2021/09/17 12:15:59;;;;;;;9.30;2.63;;;;;;;;;;5072541;28;20132;-62
2021/09/17 12:18:29;;;;;;;4.10;2.47;;;;;;;;;;5072771;28;20040;-61
2021/09/17 12:20:57;;;;;;;7.03;2.17;;;;;;;;;;5072432;28;20031;-61
2021/09/17 12:23:33;;;;;;;3.13;2.20;;;;;;;;;;5071974;28;20035;-61
2021/09/17 12:26:08;;;;;;;6.13;2.10;;;;;;;;;;5071401;28;20024;-61
2021/09/17 12:28:38;;;;;;;5.93;2.73;;;;;;;;;;5067182;28;20052;-61
2021/09/17 12:31:05;;;;;;;3.77;2.30;;;;;;;;;;5067344;28;20035;-62
2021/09/17 12:33:33;;;;;;;16.63;3.63;;;;;;;;;;5067724;28;20089;-61
2021/09/17 12:36:12;;;;;;;9.63;2.67;;;;;;;;;;5068234;28;20025;-61
2021/09/17 12:38:39;;;;;;;14.47;4.13;;;;;;;;;;5072449;28;20028;-61
2021/09/17 12:41:13;;;;;;;3.87;2.30;;;;;;;;;;5072217;28;20490;-61
2021/09/17 12:43:41;;;;;;;4.37;2.60;;;;;;;;;;5072696;28;20461;-61
2021/09/17 12:46:09;;;;;;;8.73;2.63;;;;;;;;;;5072185;28;20111;-61
2021/09/17 12:48:37;;;;;;;5.87;2.77;;;;;;;;;;5070302;28;20103;-62
2021/09/17 12:51:05;;;;;;;5.70;2.20;;;;;;;;;;5067727;28;20032;-61
2021/09/17 12:53:35;;;;;;;10.13;2.23;;;;;;;;;;5067502;28;20059;-61
2021/09/17 12:56:05;;;;;;;4.00;2.40;;;;;;;;;;5067194;28;20444;-62
2021/09/17 12:58:32;;;;;;;10.50;2.70;;;;;;;;;;5068726;28;20023;-61
2021/09/17 13:01:00;;;;;;;6.30;2.67;;;;;;;;;;5071961;28;20036;-62
2021/09/17 13:03:27;;;;;;;4.60;2.43;;;;;;;;;;5051813;28;20107;-61
2021/09/17 13:05:55;;;;;;;4.77;2.90;;;;;;;;;;5052546;28;20028;-62
2021/09/17 13:08:22;;;;;;;6.00;2.70;;;;;;;;;;5055167;28;20024;-61
2021/09/17 13:10:49;;;;;;;5.57;2.57;;;;;;;;;;5070574;28;20058;-61
2021/09/17 13:13:16;;;;;;;5.37;3.53;;;;;;;;;;5066969;28;20166;-61
2021/09/17 13:15:43;;;;;;;6.20;3.53;;;;;;;;;;5067105;28;20028;-61
2021/09/17 13:18:10;;;;;;;5.17;3.60;;;;;;;;;;5067246;28;20024;-62
2021/09/17 13:20:37;;;;;;;5.10;3.13;;;;;;;;;;5067903;28;20017;-61
2021/09/17 13:23:05;;;;;;;36.27;5.67;;;;;;;;;;5072283;28;20443;-61
2021/09/17 13:25:32;;;;;;;11.20;3.67;;;;;;;;;;5072034;28;20468;-61
2021/09/17 13:27:59;;;;;;;6.43;3.10;;;;;;;;;;5072185;28;20555;-61
2021/09/17 13:30:30;;;;;;;8.50;3.43;;;;;;;;;;5072038;28;20025;-61
2021/09/17 13:32:58;;;;;;;5.80;3.30;;;;;;;;;;5070529;28;20029;-61
2021/09/17 13:35:26;;;;;;;5.97;3.47;;;;;;;;;;5066421;28;20108;-61
2021/09/17 13:37:53;;;;;;;10.53;3.10;;;;;;;;;;5067273;28;20035;-61
2021/09/17 13:40:20;;;;;;;6.50;3.30;;;;;;;;;;5067499;28;20035;-61
2021/09/17 13:42:48;;;;;;;6.87;3.20;;;;;;;;;;5071705;28;20046;-61
2021/09/17 13:45:16;;;;;;;5.73;2.97;;;;;;;;;;5075877;28;20488;-61
2021/09/17 13:47:43;;;;;;;7.13;2.93;;;;;;;;;;5075957;28;20024;-61
2021/09/17 13:50:10;;;;;;;8.60;3.40;;;;;;;;;;5075361;28;20024;-61
2021/09/17 13:52:37;;;;;;;7.23;3.90;;;;;;;;;;5075305;28;20028;-61
2021/09/17 13:55:04;;;;;;;4.93;3.00;;;;;;;;;;5074755;28;20020;-60
2021/09/17 13:57:31;;;;;;;8.47;3.70;;;;;;;;;;5070635;28;20029;-61
2021/09/17 13:59:57;;;;;;;10.40;3.57;;;;;;;;;;5070347;28;20082;-61
2021/09/17 14:02:28;;;;;;;19.23;4.63;;;;;;;;;;5070670;28;20039;-62
2021/09/17 14:04:54;;;;;;;15.40;4.80;;;;;;;;;;5070579;28;20087;-62
2021/09/17 14:07:21;;;;;;;6.67;4.03;;;;;;;;;;5075077;28;20467;-61
2021/09/17 14:09:48;;;;;;;7.50;4.70;;;;;;;;;;5075429;28;20027;-61
2021/09/17 14:12:14;;;;;;;9.87;4.30;;;;;;;;;;5074843;28;20044;-62
2021/09/17 14:14:41;;;;;;;9.07;4.33;;;;;;;;;;5075323;28;20467;-61
2021/09/17 14:17:08;;;;;;;11.03;4.60;;;;;;;;;;5074922;28;20032;-61
2021/09/17 14:19:35;;;;;;;11.37;4.10;;;;;;;;;;5070147;28;20020;-61
2021/09/17 14:22:03;;;;;;;16.20;4.70;;;;;;;;;;5070240;28;20025;-61
2021/09/17 14:24:30;;;;;;;8.33;4.80;;;;;;;;;;5069394;28;20029;-61
2021/09/17 14:26:56;;;;;;;8.77;4.50;;;;;;;;;;5070221;28;20025;-61
2021/09/17 14:29:23;;;;;;;10.30;5.00;;;;;;;;;;5074342;28;20419;-61
2021/09/17 14:31:50;;;;;;;15.60;5.23;;;;;;;;;;5075126;28;20472;-61
2021/09/17 14:34:16;;;;;;;11.67;5.27;;;;;;;;;;5074785;28;20028;-61
2021/09/17 14:36:43;;;;;;;12.27;5.37;;;;;;;;;;5074772;28;20428;-61
2021/09/17 14:39:10;;;;;;;23.53;6.17;;;;;;;;;;5074822;28;20051;-61
2021/09/17 14:41:37;;;;;;;8.60;5.13;;;;;;;;;;5069813;28;20074;-62
2021/09/17 14:44:03;;;;;;;15.87;5.57;;;;;;;;;;5069793;28;20031;-61
2021/09/17 14:46:30;;;;;;;13.73;6.67;;;;;;;;;;5069397;28;20039;-62